Airfield :
LOGIN :

Register | Disclaimer

   EN    FR    IT 

 










Legend :    VFR   Marginal VFR   IFR   Intensive IFR   Very Intensive IFR
Visi :
Ceiling :
>= 8 km
>= 3000ft
5 to 8 km
1000 to 3000 ft
1500m to 5 km
500 to 1000 ft
800 to 1500m
200 to 500 ft
< 800m
< 200 ft
Symbols :   Thunderstorms  Fog  Heavy snow  Heavy precipitations  Wind > 20 kt
SIGMETs :     Misc.  Thunderstorms  Icing  Turbulence  Mountain Waves  Volcanic Ashes






- Airport Elevation : 1363 ft


ETIC - Grafenwohr Army Air Field

CURRENT METAR :
  • 201856Z AUTO 00000KT 9999 CLR 04/03 A3000 RMK AO2 SLP181 T00440031 $

EXPIRED METARs :
  • 201756Z AUTO 00000KT 9999 CLR 05/03 A2999 RMK AO2 SLP178 T00450030 10102 20045 55005 $
  • 201656Z AUTO 00000KT 9999 CLR 06/04 A2999 RMK AO2 SLP176 T00610041 $

TAF TAF ETIC
Valid from the 20 at 18:00 until the 22 at 00:00 UTC


201800Z 2018/2124 VRB06KT 8000 BR SCT160 BKN200 QNH3005INS
BECMG 2019/2020 VRB06KT 5000 BR SCT060 BKN080 QNH3001INS
TEMPO 2022/2104 1600 BR SCT005
BECMG 2107/2108 16006KT 9999 NSW SCT100 QNH2996INS
BECMG 2117/2118 VRB06KT 9999 FEW010 SCT100 QNH2996INS TX15/2113Z TN06/2018Z



MET'MAP, your aeronautical weather chart ! - Copyright ORBIFLY December 2007 - Disclaimer

ORBIFLY MET'MAP TEAM :

Programming & Development : Alexandra Zaïnal
Concept & original design : Baudouin d'Aumeries
Assistance for programming : Marc-Olivier Méhu
Technical & hardware support : Manuel Goepfert

Contact : metmap@orbifly.com




SOURCES & CREDITS :

   NOAA